Time;durP1;ratioP1;P1;durP2;ratioP2;P2;SDS_P1;SDS_P2;PMS_P1;PMS_P2;Temp;Humidity;BMP_temperature;BMP_pressure;BME280_temperature;BME280_humidity;BME280_pressure;Samples;Min_cycle;Max_cycle;Signal;HPM_P1;HPM_P2
2021/05/27 00:00:15;;;;;;;33.70;14.28;;;;;;;16.33;100.00;101254.05;1579552;89;21138;-89
2021/05/27 00:02:41;;;;;;;38.25;16.12;;;;;;;16.32;100.00;101247.52;1601003;89;21151;-90
2021/05/27 00:05:09;;;;;;;34.88;15.15;;;;;;;16.31;100.00;101252.16;1656268;83;21597;-90
2021/05/27 00:07:35;;;;;;;32.03;14.83;;;;;;;16.29;100.00;101248.89;1699752;83;21064;-90
2021/05/27 00:10:04;;;;;;;37.33;15.03;;;;;;;16.25;100.00;101243.77;1699870;83;21123;-90
2021/05/27 00:12:30;;;;;;;38.60;16.02;;;;;;;16.27;100.00;101251.11;1671939;83;21115;-89
2021/05/27 00:14:56;;;;;;;37.40;15.55;;;;;;;16.22;100.00;101247.05;1699853;83;21016;-89
2021/05/27 00:17:22;;;;;;;36.93;16.35;;;;;;;16.18;100.00;101246.00;1699866;83;21715;-90
2021/05/27 00:19:48;;;;;;;43.15;16.52;;;;;;;16.13;100.00;101244.11;1699924;83;21064;-89
2021/05/27 00:22:14;;;;;;;33.60;15.53;;;;;;;16.08;100.00;101246.05;1699912;83;21156;-89
2021/05/27 00:24:40;;;;;;;32.15;15.25;;;;;;;16.05;100.00;101249.32;1699961;83;21135;-89
2021/05/27 00:27:07;;;;;;;34.88;15.95;;;;;;;16.00;100.00;101243.91;1699727;83;20961;-89
2021/05/27 00:29:33;;;;;;;39.30;16.05;;;;;;;15.97;100.00;101242.58;1699879;83;21060;-89
2021/05/27 00:31:59;;;;;;;32.78;16.23;;;;;;;15.94;100.00;101247.19;1671994;83;21048;-90
2021/05/27 00:34:26;;;;;;;38.23;16.87;;;;;;;15.93;100.00;101248.84;1699977;83;21644;-89
2021/05/27 00:36:51;;;;;;;34.98;16.42;;;;;;;15.90;100.00;101246.14;1699845;83;21126;-89
2021/05/27 00:39:17;;;;;;;39.55;16.70;;;;;;;15.86;100.00;101247.25;1699796;83;20992;-89
2021/05/27 00:41:43;;;;;;;37.20;16.77;;;;;;;15.79;100.00;101249.44;1699805;83;20905;-89
2021/05/27 00:44:30;;;;;;;34.83;16.95;;;;;;;15.76;100.00;101248.64;1699954;83;20893;-89
2021/05/27 00:47:00;;;;;;;36.73;18.15;;;;;;;15.72;100.00;101250.84;1699989;83;21072;-89
2021/05/27 00:49:26;;;;;;;32.13;15.08;;;;;;;15.58;100.00;101245.96;1700089;83;21137;-89
2021/05/27 00:51:53;;;;;;;31.05;15.05;;;;;;;15.51;100.00;101250.89;1699876;83;20972;-89
2021/05/27 00:54:20;;;;;;;36.10;15.50;;;;;;;15.49;100.00;101250.89;1699646;82;21575;-88
2021/05/27 00:56:49;;;;;;;34.48;15.85;;;;;;;15.50;100.00;101249.79;1667230;86;21177;-89
2021/05/27 00:59:16;;;;;;;32.67;16.45;;;;;;;15.50;100.00;101247.08;1695160;84;21077;-90
2021/05/27 01:01:43;;;;;;;33.05;15.23;;;;;;;15.50;100.00;101252.51;1694531;83;21864;-90
2021/05/27 01:04:10;;;;;;;33.55;15.88;;;;;;;15.51;100.00;101255.52;1689604;84;21046;-89
2021/05/27 01:06:36;;;;;;;33.73;17.77;;;;;;;15.47;100.00;101255.26;1686685;84;21634;-90
2021/05/27 01:09:05;;;;;;;38.58;18.35;;;;;;;15.41;100.00;101256.33;1686637;84;21149;-90
2021/05/27 01:11:31;;;;;;;43.08;18.05;;;;;;;15.39;100.00;101253.91;1686550;84;21069;-90
2021/05/27 01:13:57;;;;;;;34.85;17.00;;;;;;;15.39;100.00;101252.55;1686603;85;21089;-90
2021/05/27 01:16:23;;;;;;;43.75;17.57;;;;;;;15.39;100.00;101255.27;1686705;85;20966;-89
2021/05/27 01:18:50;;;;;;;37.65;17.12;;;;;;;15.32;100.00;101248.48;1686552;85;21633;-90
2021/05/27 01:21:17;;;;;;;43.70;18.25;;;;;;;15.15;100.00;101252.34;1686534;84;21086;-89
2021/05/27 01:23:44;;;;;;;35.35;17.02;;;;;;;15.16;100.00;101251.78;1686632;85;21033;-90
2021/05/27 01:26:12;;;;;;;37.65;17.45;;;;;;;15.19;100.00;101251.23;1686524;84;21134;-90
2021/05/27 01:28:41;;;;;;;36.60;16.25;;;;;;;15.24;100.00;101250.42;1686530;84;21379;-90
2021/05/27 01:31:10;;;;;;;31.07;15.65;;;;;;;15.28;100.00;101245.52;1686600;85;21542;-90
2021/05/27 01:33:37;;;;;;;27.73;14.73;;;;;;;15.31;100.00;101246.32;1686670;84;21101;-90
2021/05/27 01:36:04;;;;;;;37.13;16.00;;;;;;;15.33;100.00;101245.51;1666862;85;21093;-90
2021/05/27 01:38:32;;;;;;;31.00;15.43;;;;;;;15.32;100.00;101248.48;1686811;84;21103;-90
2021/05/27 01:41:01;;;;;;;31.10;15.63;;;;;;;15.20;100.00;101249.59;1686618;83;21169;-90
2021/05/27 01:43:27;;;;;;;30.52;13.95;;;;;;;15.15;100.00;101246.91;1686705;85;21042;-90
2021/05/27 01:45:53;;;;;;;29.07;14.25;;;;;;;15.15;100.00;101242.83;1686565;85;21624;-90
2021/05/27 01:48:19;;;;;;;28.77;15.28;;;;;;;15.14;100.00;101240.37;1686642;84;21108;-89
2021/05/27 01:50:47;;;;;;;31.65;14.93;;;;;;;15.15;100.00;101240.67;1686751;85;21098;-90
2021/05/27 01:53:15;;;;;;;31.57;15.05;;;;;;;15.18;100.00;101251.78;1686713;84;21065;-90
2021/05/27 01:55:45;;;;;;;27.70;14.33;;;;;;;15.18;100.00;101246.36;1686597;85;21566;-90
2021/05/27 01:58:12;;;;;;;35.13;14.65;;;;;;;15.17;100.00;101253.41;1686758;85;21078;-90
2021/05/27 02:00:40;;;;;;;29.50;14.18;;;;;;;15.13;100.00;101258.58;1686813;84;21155;-90
2021/05/27 02:03:06;;;;;;;28.40;15.08;;;;;;;15.13;100.00;101256.41;1686825;84;21058;-91
2021/05/27 02:05:33;;;;;;;25.88;14.68;;;;;;;15.13;100.00;101250.98;1694534;83;20891;-90
2021/05/27 02:07:59;;;;;;;31.07;14.83;;;;;;;15.11;100.00;101251.78;1694592;84;21057;-90
2021/05/27 02:10:25;;;;;;;24.85;13.50;;;;;;;15.15;100.00;101259.67;1694488;84;21581;-90
2021/05/27 02:12:50;;;;;;;29.42;14.95;;;;;;;15.17;100.00;101255.56;1694435;83;21017;-91
2021/05/27 02:15:16;;;;;;;29.18;14.30;;;;;;;15.22;100.00;101256.12;1694689;84;21346;-90
2021/05/27 02:17:42;;;;;;;28.87;13.40;;;;;;;15.22;100.00;101257.47;1692512;83;20977;-90
2021/05/27 02:20:11;;;;;;;27.07;14.18;;;;;;;15.25;100.00;101256.12;1684408;84;20986;-90
2021/05/27 02:22:37;;;;;;;28.10;13.88;;;;;;;15.27;100.00;101252.05;1694585;83;20998;-90
2021/05/27 02:25:05;;;;;;;27.00;14.78;;;;;;;15.34;100.00;101255.82;1694431;83;21030;-90
2021/05/27 02:27:31;;;;;;;26.27;13.45;;;;;;;15.41;100.00;101257.17;1694562;83;21676;-90
2021/05/27 02:29:57;;;;;;;26.12;14.25;;;;;;;15.49;100.00;101259.04;1688421;84;20934;-89
2021/05/27 02:32:23;;;;;;;27.58;14.33;;;;;;;15.51;100.00;101257.68;1695790;83;20934;-90
2021/05/27 02:34:49;;;;;;;29.37;14.23;;;;;;;15.52;100.00;101262.56;1696070;83;21553;-89
2021/05/27 02:37:16;;;;;;;28.70;14.35;;;;;;;15.52;100.00;101262.56;1696131;83;20938;-90
2021/05/27 02:39:43;;;;;;;26.77;14.03;;;;;;;15.58;100.00;101260.09;1685894;84;21092;-90
2021/05/27 02:42:09;;;;;;;27.13;14.18;;;;;;;15.65;100.00;101260.08;1695865;84;21158;-89
2021/05/27 02:44:35;;;;;;;27.73;13.72;;;;;;;15.79;100.00;101258.14;1695809;83;21049;-89
2021/05/27 02:47:01;;;;;;;24.67;13.72;;;;;;;15.96;100.00;101263.23;1695953;83;21080;-89
2021/05/27 02:49:27;;;;;;;32.20;14.40;;;;;;;16.09;100.00;101259.92;1696130;84;20870;-89
2021/05/27 02:51:53;;;;;;;27.75;14.33;;;;;;;16.22;100.00;101263.36;1695972;83;21133;-89
2021/05/27 02:54:19;;;;;;;28.42;14.50;;;;;;;16.33;100.00;101266.30;1695805;83;20874;-89
2021/05/27 02:56:45;;;;;;;24.15;13.75;;;;;;;16.36;100.00;101263.56;1695974;83;20992;-90
2021/05/27 02:59:11;;;;;;;24.50;11.83;;;;;;;16.40;100.00;101262.44;1695901;84;21049;-89
2021/05/27 03:01:37;;;;;;;26.65;12.15;;;;;;;16.44;100.00;101263.49;1695910;83;21029;-89
2021/05/27 03:04:03;;;;;;;25.40;12.45;;;;;;;16.40;100.00;101270.05;1690685;84;21869;-89
2021/05/27 03:06:29;;;;;;;30.62;12.68;;;;;;;16.53;100.00;101263.16;1677939;85;21566;-89
2021/05/27 03:08:55;;;;;;;28.17;11.78;;;;;;;16.66;100.00;101263.88;1678115;84;21027;-89
2021/05/27 03:11:21;;;;;;;21.27;10.95;;;;;;;16.92;100.00;101271.88;1678235;84;20880;-89
2021/05/27 03:13:47;;;;;;;24.77;10.65;;;;;;;17.00;100.00;101273.44;1677958;84;21585;-89
2021/05/27 03:16:14;;;;;;;20.05;9.85;;;;;;;17.23;100.00;101269.11;1676171;85;21054;-89
2021/05/27 03:18:39;;;;;;;18.80;8.78;;;;;;;17.58;100.00;101271.20;1598500;89;21132;-88
2021/05/27 03:21:06;;;;;;;19.00;8.53;;;;;;;18.16;100.00;101262.05;1598201;89;21020;-88
2021/05/27 03:23:33;;;;;;;16.87;8.23;;;;;;;18.64;100.00;101267.89;1598932;89;21114;-89
2021/05/27 03:25:59;;;;;;;17.02;8.18;;;;;;;19.11;100.00;101260.01;1598874;89;21093;-88
2021/05/27 03:28:24;;;;;;;16.07;7.83;;;;;;;19.87;100.00;101264.56;1598783;89;21674;-88
2021/05/27 03:30:50;;;;;;;16.45;8.13;;;;;;;20.30;100.00;101258.70;1598404;89;20914;-88
2021/05/27 03:33:17;;;;;;;18.57;7.42;;;;;;;20.59;100.00;101261.06;1598943;89;21703;-88
2021/05/27 03:35:44;;;;;;;18.45;7.45;;;;;;;20.94;100.00;101253.62;1598494;89;21549;-88
2021/05/27 03:38:10;;;;;;;18.12;8.15;;;;;;;21.84;100.00;101245.94;1598980;89;21130;-88
2021/05/27 03:40:36;;;;;;;19.40;8.38;;;;;;;22.30;100.00;101246.52;1598778;89;21122;-87
2021/05/27 03:43:02;;;;;;;21.33;7.92;;;;;;;22.70;100.00;101247.11;1629339;85;21017;-88
2021/05/27 03:45:34;;;;;;;21.05;7.80;;;;;;;23.51;100.00;101246.23;1666403;85;21010;-87
2021/05/27 03:48:01;;;;;;;21.55;8.55;;;;;;;24.31;100.00;101250.10;1678486;85;21070;-89
2021/05/27 03:50:30;;;;;;;19.20;7.05;;;;;;;24.65;96.88;101249.02;1678043;84;21086;-88
2021/05/27 03:52:58;;;;;;;17.75;6.97;;;;;;;25.19;97.36;101252.27;1677989;85;21146;-88
2021/05/27 03:55:24;;;;;;;21.27;7.05;;;;;;;25.63;89.28;101247.80;1678097;85;21632;-88
2021/05/27 03:57:53;;;;;;;19.77;6.97;;;;;;;24.57;76.15;101256.22;1666474;85;21050;-88
2021/05/27 04:03:08;;;;;;;13.83;6.20;;;;;;;24.49;78.11;101241.94;1678194;85;21077;-88
2021/05/27 04:08:20;;;;;;;13.58;5.60;;;;;;;24.71;71.27;101247.66;1687951;85;21081;-89
2021/05/27 04:10:47;;;;;;;12.23;5.70;;;;;;;25.56;73.05;101247.55;1687978;84;21056;-88
2021/05/27 04:13:14;;;;;;;23.12;6.03;;;;;;;25.77;64.50;101241.92;1688050;84;21077;-88
2021/05/27 04:15:40;;;;;;;15.85;5.67;;;;;;;26.23;66.53;101250.80;1687945;84;21596;-88
2021/05/27 04:18:18;;;;;;;12.50;5.92;;;;;;;26.67;64.04;101244.77;1688052;84;21117;-88
2021/05/27 04:20:49;;;;;;;17.75;5.92;;;;;;;27.62;64.54;101241.27;1687867;83;21120;-87
2021/05/27 04:26:14;;;;;;;27.20;6.15;;;;;;;27.58;52.16;101253.63;1611392;88;22476;-87
2021/05/27 04:28:47;;;;;;;14.95;5.75;;;;;;;27.26;53.88;101250.66;1560528;91;21128;-87
2021/05/27 04:31:18;;;;;;;24.10;5.78;;;;;;;27.79;53.02;101247.00;1560518;91;21305;-87
2021/05/27 04:33:49;;;;;;;21.97;5.08;;;;;;;27.08;51.69;101250.98;1553965;90;21601;-86
2021/05/27 04:36:17;;;;;;;22.55;6.47;;;;;;;27.85;52.04;101250.54;1561095;91;21113;-87
2021/05/27 04:38:46;;;;;;;11.60;4.45;;;;;;;27.64;49.80;101244.46;1556676;91;21168;-88
2021/05/27 04:41:15;;;;;;;15.93;4.35;;;;;;;28.47;51.31;101245.12;1532240;93;21142;-88
2021/05/27 04:43:41;;;;;;;11.68;4.17;;;;;;;28.49;48.66;101238.61;1531472;93;21646;-85
2021/05/27 04:46:09;;;;;;;10.98;4.67;;;;;;;28.20;47.54;101246.91;1519770;94;21059;-85
2021/05/27 04:48:36;;;;;;;11.03;4.08;;;;;;;28.33;48.10;101244.81;1541108;93;21104;-86
2021/05/27 04:51:02;;;;;;;13.65;4.80;;;;;;;29.31;47.25;101250.41;1543222;93;21637;-85
2021/05/27 04:53:29;;;;;;;10.23;4.78;;;;;;;30.66;47.22;101243.72;1539742;93;21130;-86
2021/05/27 04:55:56;;;;;;;8.13;4.45;;;;;;;31.61;44.18;101239.99;1525126;93;21146;-87
2021/05/27 04:58:23;;;;;;;10.48;4.58;;;;;;;32.57;42.16;101245.26;1515778;94;21226;-87
2021/05/27 05:00:49;;;;;;;8.08;3.33;;;;;;;31.60;40.99;101243.98;1518876;93;21575;-86
2021/05/27 05:03:16;;;;;;;8.05;3.90;;;;;;;32.29;39.91;101247.33;1518809;94;21725;-86
2021/05/27 05:05:42;;;;;;;9.23;3.87;;;;;;;31.73;39.16;101243.05;1512222;93;21119;-86
2021/05/27 05:08:09;;;;;;;11.40;4.15;;;;;;;31.45;41.37;101244.48;1528326;92;21253;-86
2021/05/27 05:10:35;;;;;;;14.65;4.12;;;;;;;31.58;39.63;101242.95;1521041;92;21177;-86
2021/05/27 05:13:01;;;;;;;10.08;4.47;;;;;;;31.96;40.63;101250.58;1553246;90;21623;-86
2021/05/27 05:15:31;;;;;;;10.35;4.28;;;;;;;31.24;39.63;101243.70;1555300;90;21125;-86
2021/05/27 05:18:01;;;;;;;7.80;3.60;;;;;;;31.47;39.90;101251.83;1557773;90;21139;-87
2021/05/27 05:20:31;;;;;;;7.80;3.65;;;;;;;31.47;39.86;101243.47;1555698;90;21102;-86
2021/05/27 05:22:58;;;;;;;19.92;4.17;;;;;;;30.59;39.36;101247.84;1580775;89;21122;-84
2021/05/27 05:25:25;;;;;;;13.75;3.98;;;;;;;30.97;40.99;101247.22;1585081;87;21708;-83
2021/05/27 05:27:52;;;;;;;8.43;3.62;;;;;;;30.71;41.37;101246.17;1659990;85;21168;-83
2021/05/27 05:30:20;;;;;;;7.47;3.37;;;;;;;30.09;40.62;101248.58;1659819;85;21097;-85
2021/05/27 05:32:47;;;;;;;10.13;3.50;;;;;;;32.08;40.30;101237.68;1659985;85;21103;-82
2021/05/27 05:35:16;;;;;;;4.92;2.95;;;;;;;32.67;37.40;101245.07;1659774;85;21096;-83
2021/05/27 05:37:43;;;;;;;12.58;4.10;;;;;;;32.78;35.26;101241.70;1665594;84;21080;-82
2021/05/27 05:40:11;;;;;;;10.75;3.62;;;;;;;33.10;35.76;101240.97;1677397;84;21169;-83
2021/05/27 05:42:39;;;;;;;10.72;3.55;;;;;;;33.94;35.21;101246.82;1677688;84;21165;-83
2021/05/27 05:45:08;;;;;;;10.85;4.00;;;;;;;33.14;34.76;101248.13;1677644;84;21060;-83
2021/05/27 05:47:35;;;;;;;11.15;3.30;;;;;;;34.33;34.42;101242.50;1675058;83;21132;-83
2021/05/27 05:50:02;;;;;;;15.72;3.52;;;;;;;34.66;33.34;101244.53;1668821;83;21097;-83
2021/05/27 05:52:30;;;;;;;14.45;4.40;;;;;;;35.36;31.07;101242.21;1681850;83;21053;-83
2021/05/27 05:54:56;;;;;;;21.57;5.50;;;;;;;35.67;32.13;101241.09;1681783;84;21545;-83
2021/05/27 05:57:22;;;;;;;20.35;5.45;;;;;;;34.16;32.65;101248.98;1681818;84;21658;-83
2021/05/27 05:59:48;;;;;;;19.05;4.67;;;;;;;33.67;32.72;101217.15;1681642;85;21097;-84
2021/05/27 17:00:05;;;;;;;5.55;2.30;;;;;;;26.16;38.51;100926.77;1701605;83;21027;-90
2021/05/27 17:02:31;;;;;;;17.85;5.15;;;;;;;26.08;39.67;100933.27;1711633;82;21030;-90
2021/05/27 17:04:57;;;;;;;10.72;3.47;;;;;;;25.96;40.56;100931.41;1700146;83;21101;-88
2021/05/27 17:07:23;;;;;;;27.07;5.00;;;;;;;25.88;40.97;100924.67;1700140;84;21126;-90
2021/05/27 17:09:49;;;;;;;24.67;5.12;;;;;;;25.77;41.50;100925.19;1700108;83;21613;-91
2021/05/27 17:12:15;;;;;;;18.55;4.97;;;;;;;25.57;43.30;100927.02;1700236;83;20939;-90
2021/05/27 17:14:40;;;;;;;28.70;7.40;;;;;;;25.27;45.06;100927.98;1700166;83;21021;-90
2021/05/27 17:17:06;;;;;;;20.70;6.87;;;;;;;25.08;45.69;100929.16;1700195;83;20934;-91
2021/05/27 17:19:32;;;;;;;37.85;8.45;;;;;;;24.84;46.94;100930.05;1700052;84;21657;-89
2021/05/27 17:21:58;;;;;;;31.97;8.85;;;;;;;24.52;48.44;100926.31;1696431;84;20950;-90
2021/05/27 17:24:26;;;;;;;54.20;11.68;;;;;;;24.35;48.46;100925.94;1678324;84;21054;-90
2021/05/27 17:26:52;;;;;;;49.98;13.83;;;;;;;24.18;49.24;100929.75;1700256;83;21006;-90
2021/05/27 17:29:18;;;;;;;58.80;15.60;;;;;;;24.00;49.84;100928.59;1700198;84;21034;-91
2021/05/27 17:31:44;;;;;;;39.92;10.93;;;;;;;23.85;51.11;100931.19;1697695;83;21148;-88
2021/05/27 17:34:10;;;;;;;46.95;12.47;;;;;;;23.69;51.02;100936.52;1700335;83;21037;-87
2021/05/27 17:36:37;;;;;;;41.20;9.13;;;;;;;23.41;55.58;100936.31;1699886;83;21590;-89
2021/05/27 17:39:07;;;;;;;77.27;20.57;;;;;;;23.15;54.19;100941.50;1700124;83;21078;-88
2021/05/27 17:41:34;;;;;;;37.73;8.25;;;;;;;22.98;53.65;100936.13;1696602;84;21018;-88
2021/05/27 17:44:01;;;;;;;42.10;9.05;;;;;;;22.85;53.12;100934.66;1699976;84;21129;-87
2021/05/27 17:46:27;;;;;;;29.75;6.10;;;;;;;22.73;53.15;100944.18;1666470;83;21106;-88
2021/05/27 17:48:53;;;;;;;26.27;5.50;;;;;;;22.57;52.72;100941.22;1683759;83;21616;-89
2021/05/27 17:51:21;;;;;;;31.07;4.87;;;;;;;22.43;52.60;100938.70;1667936;84;21064;-88
2021/05/27 17:53:47;;;;;;;34.00;5.67;;;;;;;22.27;55.01;100946.48;1666839;83;21112;-90
2021/05/27 17:56:14;;;;;;;19.45;4.28;;;;;;;22.05;59.02;100944.18;1666993;83;21738;-89
2021/05/27 17:58:40;;;;;;;27.00;5.62;;;;;;;21.93;58.59;100944.88;1666749;84;21029;-91
2021/05/27 18:01:07;;;;;;;25.17;5.53;;;;;;;21.77;65.27;100952.03;1666963;84;21057;-91
2021/05/27 18:03:34;;;;;;;25.95;5.08;;;;;;;21.61;66.87;100945.44;1666959;83;21144;-90
2021/05/27 18:06:04;;;;;;;21.27;5.53;;;;;;;21.48;67.84;100945.87;1667252;84;21710;-90
2021/05/27 18:08:32;;;;;;;27.58;6.10;;;;;;;21.35;74.12;100947.61;1676652;83;21088;-88
2021/05/27 18:10:59;;;;;;;27.25;6.65;;;;;;;21.19;78.61;100951.99;1714331;81;21561;-88
2021/05/27 18:13:25;;;;;;;24.92;6.33;;;;;;;21.04;78.47;100954.08;1692993;84;21069;-87
2021/05/27 18:15:52;;;;;;;24.45;5.85;;;;;;;20.94;83.30;100946.73;1692935;83;21085;-87
2021/05/27 18:18:18;;;;;;;25.15;6.62;;;;;;;20.76;100.00;100950.81;1652721;84;21057;-88
2021/05/27 18:20:46;;;;;;;29.52;8.18;;;;;;;20.64;98.02;100948.69;1692041;83;21770;-90
2021/05/27 18:23:12;;;;;;;35.55;9.90;;;;;;;20.53;98.56;100942.47;1687743;85;21090;-90
2021/05/27 18:25:45;;;;;;;37.90;10.25;;;;;;;20.40;100.00;100946.35;1683256;83;21085;-90
2021/05/27 18:28:08;;;;;;;33.02;8.90;;;;;;;20.31;100.00;100940.05;1662263;83;21100;-90
2021/05/27 18:30:34;;;;;;;37.90;10.32;;;;;;;20.23;99.85;100938.08;1671295;83;21560;-91
2021/05/27 18:33:00;;;;;;;36.10;10.20;;;;;;;20.17;100.00;100948.92;1690037;84;21631;-91
2021/05/27 18:35:26;;;;;;;36.15;10.68;;;;;;;20.04;100.00;100946.54;1695470;82;21106;-91
2021/05/27 18:37:52;;;;;;;49.10;13.98;;;;;;;19.94;100.00;100939.42;1643760;85;21603;-91
2021/05/27 18:40:19;;;;;;;49.58;12.20;;;;;;;19.90;100.00;100945.82;1649664;84;21093;-90
2021/05/27 18:42:46;;;;;;;49.58;15.80;;;;;;;19.85;100.00;100942.65;1681593;83;21040;-90
2021/05/27 18:45:12;;;;;;;49.03;14.87;;;;;;;19.79;100.00;100938.44;1708211;83;21076;-90
2021/05/27 18:47:38;;;;;;;63.60;16.20;;;;;;;19.73;100.00;100934.22;1706023;82;21595;-89
2021/05/27 18:50:07;;;;;;;66.05;15.72;;;;;;;19.67;100.00;100936.28;1694758;83;20969;-90
2021/05/27 18:52:33;;;;;;;61.98;14.70;;;;;;;19.62;100.00;100936.94;1701913;84;21005;-91
2021/05/27 18:55:00;;;;;;;52.93;14.40;;;;;;;19.55;100.00;100935.21;1702984;84;21044;-91
2021/05/27 18:57:26;;;;;;;57.10;16.27;;;;;;;19.41;100.00;100932.00;1703078;83;21147;-89
2021/05/27 18:59:53;;;;;;;69.22;18.70;;;;;;;19.28;100.00;100931.48;1699607;84;21092;-90
2021/05/27 19:02:18;;;;;;;64.27;16.57;;;;;;;19.19;100.00;100931.42;1703120;84;21041;-90
2021/05/27 19:04:46;;;;;;;75.87;17.05;;;;;;;19.12;100.00;100928.32;1699435;83;20928;-90
2021/05/27 19:07:12;;;;;;;67.25;16.52;;;;;;;19.05;100.00;100932.02;1728151;81;21510;-91
2021/05/27 19:09:38;;;;;;;72.62;17.73;;;;;;;18.97;100.00;100926.75;1728275;81;21045;-90
2021/05/27 19:12:05;;;;;;;84.17;19.25;;;;;;;18.93;100.00;100927.66;1728012;83;21044;-90
2021/05/27 19:14:31;;;;;;;61.65;16.55;;;;;;;18.84;100.00;100931.68;1728197;81;21735;-90
2021/05/27 19:16:57;;;;;;;79.75;18.95;;;;;;;18.76;100.00;100933.20;1678480;84;21085;-90
2021/05/27 19:19:23;;;;;;;76.40;20.40;;;;;;;18.73;100.00;100929.72;1707567;83;21687;-91
2021/05/27 19:21:49;;;;;;;77.78;21.07;;;;;;;18.61;100.00;100923.39;1707113;83;20972;-90
2021/05/27 19:24:16;;;;;;;71.53;20.92;;;;;;;18.58;100.00;100927.30;1679059;84;20899;-90
2021/05/27 19:26:42;;;;;;;70.35;18.98;;;;;;;18.58;100.00;100921.83;1707110;83;21084;-90
2021/05/27 19:29:10;;;;;;;81.08;20.60;;;;;;;18.56;100.00;100915.86;1703021;84;21065;-90
2021/05/27 19:31:36;;;;;;;71.85;20.12;;;;;;;18.49;100.00;100920.38;1707446;83;21072;-91
2021/05/27 19:34:02;;;;;;;81.67;22.40;;;;;;;18.44;100.00;100916.94;1707066;83;21745;-91
2021/05/27 19:36:28;;;;;;;75.65;21.75;;;;;;;18.37;100.00;100925.55;1707174;84;21045;-89
2021/05/27 19:38:54;;;;;;;86.20;24.07;;;;;;;18.23;100.00;100920.08;1707380;83;21588;-91
2021/05/27 19:41:21;;;;;;;87.40;24.05;;;;;;;18.13;100.00;100921.66;1706971;83;21049;-92
2021/05/27 19:43:48;;;;;;;93.33;25.95;;;;;;;18.08;100.00;100923.91;1679119;84;21041;-91
2021/05/27 19:46:14;;;;;;;87.57;25.92;;;;;;;18.07;100.00;100922.88;1707341;83;21115;-90
2021/05/27 19:48:40;;;;;;;95.12;26.42;;;;;;;18.04;100.00;100919.38;1707006;83;20883;-90
2021/05/27 19:51:06;;;;;;;81.95;26.02;;;;;;;18.01;100.00;100917.27;1707291;84;20993;-90
2021/05/27 19:53:32;;;;;;;89.67;25.85;;;;;;;17.98;100.00;100915.94;1707179;83;21062;-90
2021/05/27 19:55:58;;;;;;;91.25;26.42;;;;;;;17.96;100.00;100910.53;1679090;84;21008;-90
2021/05/27 19:58:24;;;;;;;97.08;25.72;;;;;;;17.90;100.00;100918.00;1707246;83;21136;-91
2021/05/27 20:00:51;;;;;;;90.32;25.97;;;;;;;17.88;100.00;100920.20;1707272;84;21532;-89
2021/05/27 20:03:17;;;;;;;75.30;23.27;;;;;;;17.86;100.00;100913.70;1704273;83;21022;-90
2021/05/27 20:05:43;;;;;;;81.70;23.55;;;;;;;17.81;100.00;100918.44;1697034;83;20962;-89
2021/05/27 20:08:09;;;;;;;82.88;24.37;;;;;;;17.79;100.00;100915.20;1677396;84;21656;-91
2021/05/27 20:10:37;;;;;;;78.72;24.07;;;;;;;17.78;100.00;100912.23;1697104;84;21064;-90
2021/05/27 20:13:04;;;;;;;85.12;23.25;;;;;;;17.76;100.00;100911.12;1696975;84;21026;-90
2021/05/27 20:15:30;;;;;;;82.57;23.83;;;;;;;17.71;100.00;100907.14;1697175;84;21058;-90
2021/05/27 20:17:56;;;;;;;85.70;24.37;;;;;;;17.67;100.00;100908.27;1697171;84;21070;-90
2021/05/27 20:20:22;;;;;;;74.80;22.15;;;;;;;17.62;100.00;100902.94;1697067;84;21687;-90
2021/05/27 20:22:48;;;;;;;84.85;22.52;;;;;;;17.59;100.00;100902.70;1697116;84;21065;-90
2021/05/27 20:25:14;;;;;;;74.40;22.07;;;;;;;17.57;100.00;100905.74;1693663;84;20970;-90
2021/05/27 20:27:40;;;;;;;77.90;21.85;;;;;;;17.53;100.00;100906.09;1697131;84;21197;-90
2021/05/27 20:32:36;;;;;;;79.87;21.60;;;;;;;17.37;100.00;100898.72;1652514;86;21057;-90
2021/05/27 20:35:02;;;;;;;63.50;18.87;;;;;;;17.36;100.00;100905.28;1628981;88;21840;-91
2021/05/27 20:37:28;;;;;;;67.65;19.02;;;;;;;17.29;100.00;100901.30;1629025;88;21625;-89
2021/05/27 20:39:54;;;;;;;53.55;17.15;;;;;;;17.26;100.00;100901.34;1629123;88;21012;-90
2021/05/27 20:42:20;;;;;;;51.00;15.28;;;;;;;17.17;100.00;100902.56;1607373;88;21472;-89
2021/05/27 20:44:46;;;;;;;55.78;17.50;;;;;;;17.18;100.00;100904.20;1629135;88;21061;-91
2021/05/27 20:47:12;;;;;;;57.23;18.20;;;;;;;17.18;100.00;100900.12;1628996;88;21109;-91
2021/05/27 20:49:38;;;;;;;60.78;17.90;;;;;;;17.14;100.00;100901.00;1629287;88;21084;-88
2021/05/27 20:52:05;;;;;;;56.80;17.37;;;;;;;17.03;100.00;100899.00;1629112;88;20949;-89
2021/05/27 20:54:32;;;;;;;51.15;14.65;;;;;;;16.93;100.00;100897.22;1628891;88;22576;-89
2021/05/27 20:56:57;;;;;;;46.18;14.70;;;;;;;16.82;100.00;100892.22;1629171;88;21060;-89
2021/05/27 20:59:23;;;;;;;46.65;15.18;;;;;;;16.79;100.00;100892.25;1628921;88;21144;-89
2021/05/27 21:01:49;;;;;;;52.78;14.38;;;;;;;16.78;100.00;100892.00;1629227;88;21001;-88
2021/05/27 21:04:15;;;;;;;61.95;15.40;;;;;;;16.77;100.00;100891.20;1615226;88;20911;-89
2021/05/27 21:06:41;;;;;;;54.08;15.10;;;;;;;16.71;100.00;100896.42;1626835;88;21159;-89
2021/05/27 21:09:07;;;;;;;51.48;14.15;;;;;;;16.63;100.00;100887.55;1610493;89;21037;-88
2021/05/27 21:11:33;;;;;;;47.03;14.90;;;;;;;16.60;100.00;100892.22;1610767;89;21776;-88
2021/05/27 21:13:59;;;;;;;48.58;13.85;;;;;;;16.56;100.00;100889.84;1610502;89;20946;-89
2021/05/27 21:16:25;;;;;;;43.00;13.20;;;;;;;16.50;100.00;100893.17;1610786;89;21728;-88
2021/05/27 21:18:51;;;;;;;38.63;11.95;;;;;;;16.46;100.00;100888.04;1610565;89;21153;-88
2021/05/27 21:21:16;;;;;;;36.93;12.37;;;;;;;16.43;100.00;100883.73;1610655;89;20934;-88
2021/05/27 21:23:42;;;;;;;44.53;11.90;;;;;;;16.40;100.00;100885.69;1610512;89;21800;-88
2021/05/27 21:26:08;;;;;;;41.42;13.03;;;;;;;16.35;100.00;100884.66;1604854;89;21023;-88
2021/05/27 21:28:34;;;;;;;35.78;13.38;;;;;;;16.31;100.00;100886.33;1610896;89;20946;-89
2021/05/27 21:31:00;;;;;;;39.20;12.18;;;;;;;16.24;100.00;100889.95;1610499;89;20996;-88
2021/05/27 21:33:26;;;;;;;38.10;12.50;;;;;;;16.15;100.00;100887.63;1589452;89;20910;-88
2021/05/27 21:35:53;;;;;;;40.88;12.93;;;;;;;16.13;100.00;100885.73;1626069;87;21164;-87
2021/05/27 21:38:19;;;;;;;42.10;12.18;;;;;;;16.10;100.00;100884.41;1644953;86;21125;-89
2021/05/27 21:40:45;;;;;;;38.15;11.20;;;;;;;16.06;100.00;100887.45;1644945;86;20982;-88
2021/05/27 21:43:12;;;;;;;40.00;11.60;;;;;;;16.01;100.00;100882.06;1644921;86;21081;-89
2021/05/27 21:45:38;;;;;;;34.45;11.65;;;;;;;15.98;100.00;100889.99;1644987;87;21073;-89
2021/05/27 21:48:05;;;;;;;32.95;11.93;;;;;;;15.91;100.00;100891.67;1644789;86;21147;-88
2021/05/27 21:50:40;;;;;;;33.90;11.12;;;;;;;15.74;100.00;100911.16;1644898;86;21041;-88
2021/05/27 21:53:10;;;;;;;40.03;11.90;;;;;;;15.71;100.00;100899.50;1644917;87;21081;-88
2021/05/27 21:55:38;;;;;;;36.83;11.40;;;;;;;15.63;100.00;100893.30;1644991;86;21058;-88
2021/05/27 21:58:04;;;;;;;32.25;11.75;;;;;;;15.61;100.00;100900.91;1644953;87;21604;-87
2021/05/27 22:00:31;;;;;;;36.03;11.43;;;;;;;15.57;100.00;100902.59;1645049;87;21060;-88
2021/05/27 22:02:57;;;;;;;38.83;11.85;;;;;;;15.49;100.00;100899.93;1644708;86;21089;-87
2021/05/27 22:05:23;;;;;;;34.73;11.55;;;;;;;15.48;100.00;100904.30;1678647;85;21061;-88
2021/05/27 22:07:49;;;;;;;33.05;12.00;;;;;;;15.40;100.00;100898.92;1684494;85;20945;-87
2021/05/27 22:10:16;;;;;;;35.33;10.80;;;;;;;15.32;100.00;100900.34;1684664;85;21049;-88
2021/05/27 22:12:41;;;;;;;33.02;11.18;;;;;;;15.30;100.00;100897.66;1684261;84;21727;-88